createdAt,value
2018-07-28T00:00:39.923Z,16.7
2018-07-28T00:01:30.275Z,16.7
2018-07-28T00:02:20.306Z,16.7
2018-07-28T00:03:10.115Z,16.7
2018-07-28T00:04:00.169Z,16.6
2018-07-28T00:04:50.503Z,16.6
2018-07-28T00:05:40.548Z,16.6
2018-07-28T00:06:30.621Z,16.6
2018-07-28T00:07:20.672Z,16.6
2018-07-28T00:08:10.734Z,16.6
2018-07-28T00:09:00.030Z,16.6
2018-07-28T00:09:50.426Z,16.6
2018-07-28T00:10:40.592Z,16.6
2018-07-28T00:11:30.550Z,16.6
2018-07-28T00:12:20.580Z,16.6
2018-07-28T00:13:10.832Z,16.6
2018-07-28T00:14:01.175Z,16.6
2018-07-28T00:14:50.966Z,16.5
2018-07-28T00:15:41.328Z,16.5
2018-07-28T00:16:31.111Z,16.5
2018-07-28T00:17:21.425Z,16.5
2018-07-28T00:18:11.250Z,16.5
2018-07-28T00:19:01.585Z,16.5
2018-07-28T00:19:51.631Z,16.5
2018-07-28T00:20:41.419Z,16.4
2018-07-28T00:21:31.757Z,16.4
2018-07-28T00:22:21.852Z,16.4
2018-07-28T00:23:11.906Z,16.4
2018-07-28T00:24:01.700Z,16.4
2018-07-28T00:24:52.025Z,16.4
2018-07-28T00:25:42.126Z,16.4
2018-07-28T00:26:32.204Z,16.4
2018-07-28T00:27:22.227Z,16.4
2018-07-28T00:28:12.306Z,16.4
2018-07-28T00:29:02.367Z,16.4
2018-07-28T00:29:52.414Z,16.4
2018-07-28T00:30:42.324Z,16.4
2018-07-28T00:31:32.543Z,16.4
2018-07-28T00:32:22.613Z,16.4
2018-07-28T00:33:12.692Z,16.4
2018-07-28T00:34:02.772Z,16.3
2018-07-28T00:34:52.818Z,16.4
2018-07-28T00:35:42.883Z,16.3
2018-07-28T00:36:32.368Z,16.3
2018-07-28T00:37:22.995Z,16.3
2018-07-28T00:38:12.787Z,16.3
2018-07-28T00:39:02.858Z,16.3
2018-07-28T00:39:52.920Z,16.3
2018-07-28T00:40:42.986Z,16.3
2018-07-28T00:41:33.334Z,16.3
2018-07-28T00:42:23.411Z,16.3
2018-07-28T00:43:13.156Z,16.3
2018-07-28T00:44:03.567Z,16.3
2018-07-28T00:44:53.063Z,16.3
2018-07-28T00:45:43.634Z,16.3
2018-07-28T00:46:33.706Z,16.3
2018-07-28T00:47:23.481Z,16.3
2018-07-28T00:48:13.821Z,16.3
2018-07-28T00:49:03.941Z,16.3
2018-07-28T00:49:53.950Z,16.3
2018-07-28T00:50:43.739Z,16.2
2018-07-28T00:51:34.119Z,16.2
2018-07-28T00:52:24.140Z,16.2
2018-07-28T00:53:13.933Z,16.2
2018-07-28T00:54:04.271Z,16.2
2018-07-28T00:54:54.328Z,16.2
2018-07-28T00:55:43.846Z,16.2
2018-07-28T00:56:34.475Z,16.2
2018-07-28T00:57:23.692Z,16.2
2018-07-28T00:58:14.301Z,16.1
2018-07-28T00:59:04.385Z,16.1
2018-07-28T00:59:54.166Z,16.1
2018-07-28T01:00:44.795Z,16.1
2018-07-28T01:01:34.855Z,16.1
2018-07-28T01:02:24.686Z,16.1
2018-07-28T01:03:15.004Z,16.1
2018-07-28T01:04:04.512Z,16.1
2018-07-28T01:04:55.129Z,16.1
2018-07-28T01:05:45.172Z,16.1
2018-07-28T01:06:35.252Z,16.1
2018-07-28T01:07:25.337Z,16.1
2018-07-28T01:08:14.837Z,16.1
2018-07-28T01:09:05.159Z,16.1
2018-07-28T01:09:55.516Z,16.1
2018-07-28T01:10:45.323Z,16.1
2018-07-28T01:11:35.623Z,16
2018-07-28T01:12:25.703Z,16
2018-07-28T01:13:15.780Z,16
2018-07-28T01:14:05.837Z,16
2018-07-28T01:14:55.906Z,16
2018-07-28T01:15:45.679Z,16
2018-07-28T01:16:35.773Z,16
2018-07-28T01:17:25.548Z,16
2018-07-28T01:18:16.149Z,16
2018-07-28T01:19:06.241Z,15.9
2018-07-28T01:19:56.300Z,15.9
2018-07-28T01:20:46.043Z,15.9
2018-07-28T01:21:36.111Z,15.9
2018-07-28T01:22:26.465Z,15.9
2018-07-28T01:23:16.293Z,16
2018-07-28T01:24:06.315Z,16
2018-07-28T01:24:56.634Z,15.9
2018-07-28T01:25:46.713Z,15.9
2018-07-28T01:26:36.511Z,15.9
2018-07-28T01:27:26.832Z,16
2018-07-28T01:28:16.911Z,16
2018-07-28T01:29:06.698Z,16
2018-07-28T01:29:57.033Z,16
2018-07-28T01:30:46.801Z,16.1
2018-07-28T01:31:37.165Z,16.1
2018-07-28T01:32:27.223Z,16.1
2018-07-28T01:33:17.277Z,16.1
2018-07-28T01:34:07.059Z,16.1
2018-07-28T01:34:57.424Z,16.1
2018-07-28T01:35:47.198Z,16.1
2018-07-28T01:36:37.530Z,16.1
2018-07-28T01:37:27.356Z,16.1
2018-07-28T01:38:17.697Z,16.1
2018-07-28T01:39:07.808Z,16.1
2018-07-28T01:39:57.543Z,16.1
2018-07-28T01:40:47.881Z,16.1
2018-07-28T01:41:37.935Z,16.1
2018-07-28T01:42:27.745Z,16.1
2018-07-28T01:43:17.785Z,16.1
2018-07-28T01:44:08.138Z,16.1
2018-07-28T01:44:58.216Z,16.1
2018-07-28T01:45:48.045Z,16.1
2018-07-28T01:46:38.060Z,16.1
2018-07-28T01:47:28.385Z,16.2
2018-07-28T01:48:18.458Z,16.1
2018-07-28T01:49:08.517Z,16.1
2018-07-28T01:49:58.636Z,16.1
2018-07-28T01:50:48.639Z,16.1
2018-07-28T01:51:38.724Z,16.1
2018-07-28T01:52:28.519Z,16.1
2018-07-28T01:53:18.874Z,16.1
2018-07-28T01:54:08.930Z,16.1
2018-07-28T01:54:58.980Z,16.1
2018-07-28T01:55:48.750Z,16.1
2018-07-28T01:56:38.800Z,16.1
2018-07-28T01:57:29.132Z,16.1
2018-07-28T01:58:18.636Z,16.1
2018-07-28T01:59:09.284Z,16.1
2018-07-28T01:59:59.372Z,16.1
2018-07-28T02:00:49.394Z,16.1
2018-07-28T02:01:39.192Z,16.1
2018-07-28T02:02:29.535Z,16.1
2018-07-28T02:03:19.614Z,16.1
2018-07-28T02:04:09.653Z,16.1
2018-07-28T02:04:59.156Z,16.1
2018-07-28T02:05:49.789Z,16.1
2018-07-28T02:06:39.858Z,16.1
2018-07-28T02:07:29.931Z,16
2018-07-28T02:08:19.700Z,16.1
2018-07-28T02:09:10.091Z,16
2018-07-28T02:10:00.116Z,16
2018-07-28T02:10:49.890Z,16
2018-07-28T02:11:39.964Z,16
2018-07-28T02:12:29.761Z,16
2018-07-28T02:13:20.351Z,16
2018-07-28T02:14:10.187Z,16
2018-07-28T02:15:00.224Z,16
2018-07-28T02:15:50.565Z,15.9
2018-07-28T02:16:40.650Z,16
2018-07-28T02:17:30.447Z,16
2018-07-28T02:18:20.495Z,16
2018-07-28T02:19:10.591Z,15.9
2018-07-28T02:20:00.320Z,15.9
2018-07-28T02:20:50.679Z,15.9
2018-07-28T02:21:41.025Z,15.9
2018-07-28T02:22:31.077Z,15.9
2018-07-28T02:23:21.139Z,15.9
2018-07-28T02:24:10.940Z,15.9
2018-07-28T02:25:01.273Z,15.9
2018-07-28T02:25:51.067Z,15.9
2018-07-28T02:26:41.425Z,15.9
2018-07-28T02:27:31.492Z,15.9
2018-07-28T02:28:21.531Z,15.9
2018-07-28T02:29:11.618Z,15.9
2018-07-28T02:30:01.677Z,15.9
2018-07-28T02:30:51.450Z,15.9
2018-07-28T02:31:41.786Z,15.9
2018-07-28T02:32:31.854Z,15.9
2018-07-28T02:33:21.359Z,15.9
2018-07-28T02:34:11.705Z,15.9
2018-07-28T02:35:02.086Z,15.9
2018-07-28T02:35:52.093Z,15.8
2018-07-28T02:36:42.171Z,15.8
2018-07-28T02:37:32.235Z,15.8
2018-07-28T02:38:22.315Z,15.8
2018-07-28T02:39:12.385Z,15.8
2018-07-28T02:40:01.862Z,15.8
2018-07-28T02:40:52.208Z,15.8
2018-07-28T02:41:42.555Z,15.8
2018-07-28T02:42:32.064Z,15.8
2018-07-28T02:43:22.694Z,15.8
2018-07-28T02:44:12.736Z,15.8
2018-07-28T02:45:02.825Z,15.8
2018-07-28T02:45:52.575Z,15.8
2018-07-28T02:46:42.920Z,15.8
2018-07-28T02:47:32.731Z,15.8
2018-07-28T02:48:23.070Z,15.8
2018-07-28T02:49:13.114Z,15.8
2018-07-28T02:50:03.245Z,15.8
2018-07-28T02:50:53.317Z,15.8
2018-07-28T02:51:42.775Z,15.8
2018-07-28T02:52:33.151Z,15.8
2018-07-28T02:53:23.451Z,15.8
2018-07-28T02:54:13.526Z,15.7
2018-07-28T02:55:03.322Z,15.7
2018-07-28T02:55:53.708Z,15.7
2018-07-28T02:56:43.724Z,15.7
2018-07-28T02:57:33.792Z,15.7
2018-07-28T02:58:23.867Z,15.7
2018-07-28T02:59:13.909Z,15.6
2018-07-28T03:00:03.406Z,15.7
2018-07-28T03:00:53.784Z,15.7
2018-07-28T03:01:43.834Z,15.6
2018-07-28T03:02:34.190Z,15.6
2018-07-28T03:03:24.229Z,15.6
2018-07-28T03:04:14.007Z,15.6
2018-07-28T03:05:04.414Z,15.6
2018-07-28T03:05:54.422Z,15.6
2018-07-28T03:06:44.506Z,15.6
2018-07-28T03:07:34.522Z,15.6
2018-07-28T03:08:24.749Z,15.6
2018-07-28T03:09:14.417Z,15.6
2018-07-28T03:10:04.754Z,15.6
2018-07-28T03:10:54.798Z,15.6
2018-07-28T03:11:44.874Z,15.6
2018-07-28T03:12:34.932Z,15.6
2018-07-28T03:13:24.989Z,15.6
2018-07-28T03:14:14.788Z,15.6
2018-07-28T03:15:05.164Z,15.6
2018-07-28T03:15:54.612Z,15.6
2018-07-28T03:16:44.973Z,15.5
2018-07-28T03:17:35.364Z,15.6
2018-07-28T03:18:25.490Z,15.5
2018-07-28T03:19:15.436Z,15.6
2018-07-28T03:20:05.501Z,15.6
2018-07-28T03:20:55.309Z,15.5
2018-07-28T03:21:45.369Z,15.6
2018-07-28T03:22:35.688Z,15.6
2018-07-28T03:23:25.464Z,15.6
2018-07-28T03:24:15.535Z,15.6
2018-07-28T03:25:05.905Z,15.6
2018-07-28T03:25:55.976Z,15.6
2018-07-28T03:26:46.043Z,15.6
2018-07-28T03:27:35.806Z,15.6
2018-07-28T03:28:26.190Z,15.6
2018-07-28T03:29:16.239Z,15.6
2018-07-28T03:30:06.017Z,15.6
2018-07-28T03:30:55.896Z,15.6
2018-07-28T03:31:46.420Z,15.6
2018-07-28T03:32:36.519Z,15.6
2018-07-28T03:33:26.540Z,15.6
2018-07-28T03:34:16.334Z,15.6
2018-07-28T03:35:06.384Z,15.6
2018-07-28T03:35:56.725Z,15.6
2018-07-28T03:36:46.521Z,15.6
2018-07-28T03:37:36.874Z,15.6
2018-07-28T03:38:26.631Z,15.6
2018-07-28T03:39:16.724Z,15.6
2018-07-28T03:40:07.049Z,15.6
2018-07-28T03:40:56.547Z,15.6
2018-07-28T03:41:47.159Z,15.6
2018-07-28T03:42:36.954Z,15.6
2018-07-28T03:43:27.008Z,15.6
2018-07-28T03:44:17.363Z,15.6
2018-07-28T03:45:07.129Z,15.6
2018-07-28T03:45:57.199Z,15.6
2018-07-28T03:46:47.553Z,15.6
2018-07-28T03:47:37.611Z,15.7
2018-07-28T03:48:27.402Z,15.7
2018-07-28T03:49:18.199Z,15.7
2018-07-28T03:50:07.803Z,15.7
2018-07-28T03:50:57.877Z,15.7
2018-07-28T03:51:47.955Z,15.7
2018-07-28T03:52:38.015Z,15.8
2018-07-28T03:53:28.066Z,15.8
2018-07-28T03:54:18.136Z,15.8
2018-07-28T03:55:07.925Z,15.8
2018-07-28T03:55:57.973Z,15.8
2018-07-28T03:56:48.065Z,15.8
2018-07-28T03:57:38.384Z,15.8
2018-07-28T03:58:28.463Z,15.8
2018-07-28T03:59:18.540Z,15.8
2018-07-28T04:00:08.589Z,15.8
2018-07-28T04:00:58.378Z,15.9
2018-07-28T04:01:48.711Z,15.9
2018-07-28T04:02:38.756Z,15.9
2018-07-28T04:03:27.972Z,15.9
2018-07-28T04:04:19.569Z,15.9
2018-07-28T04:05:08.934Z,15.9
2018-07-28T04:05:59.022Z,15.9
2018-07-28T04:06:49.071Z,15.9
2018-07-28T04:07:39.146Z,16
2018-07-28T04:08:28.938Z,16
2018-07-28T04:09:19.272Z,16
2018-07-28T04:10:09.075Z,16.1
2018-07-28T04:10:59.415Z,16.1
2018-07-28T04:11:49.475Z,16.1
2018-07-28T04:12:39.255Z,16.1
2018-07-28T04:13:29.607Z,16.1
2018-07-28T04:14:19.828Z,16.2
2018-07-28T04:15:09.728Z,16.2
2018-07-28T04:15:59.780Z,16.2
2018-07-28T04:16:49.880Z,16.3
2018-07-28T04:17:39.930Z,16.3
2018-07-28T04:18:30.002Z,16.3
2018-07-28T04:19:20.084Z,16.4
2018-07-28T04:20:10.166Z,16.4
2018-07-28T04:21:00.194Z,16.5
2018-07-28T04:21:49.975Z,16.6
2018-07-28T04:22:40.311Z,16.6
2018-07-28T04:23:30.379Z,16.7
2018-07-28T04:24:20.449Z,16.7
2018-07-28T04:25:10.521Z,16.8
2018-07-28T04:26:00.632Z,16.9
2018-07-28T04:26:50.635Z,16.9
2018-07-28T04:27:40.700Z,17.1
2018-07-28T04:28:30.691Z,17.1
2018-07-28T04:29:20.581Z,17.2
2018-07-28T04:30:10.907Z,17.3
2018-07-28T04:31:00.975Z,17.4
2018-07-28T04:31:50.730Z,17.4
2018-07-28T04:32:41.086Z,17.5
2018-07-28T04:33:31.152Z,17.6
2018-07-28T04:34:21.248Z,17.7
2018-07-28T04:35:11.281Z,17.8
2018-07-28T04:36:01.085Z,17.8
2018-07-28T04:36:51.398Z,17.9
2018-07-28T04:37:41.480Z,18
2018-07-28T04:38:31.549Z,18.1
2018-07-28T04:39:21.041Z,18.2
2018-07-28T04:40:11.659Z,18.3
2018-07-28T04:41:01.745Z,18.4
2018-07-28T04:41:51.334Z,18.4
2018-07-28T04:42:41.835Z,18.5
2018-07-28T04:43:32.029Z,18.6
2018-07-28T04:45:12.046Z,18.8
2018-07-28T04:46:02.106Z,18.9
2018-07-28T04:46:52.190Z,19
2018-07-28T04:47:42.239Z,19.1
2018-07-28T04:48:32.295Z,19.2
2018-07-28T04:49:22.381Z,19.3
2018-07-28T04:50:12.137Z,19.4
2018-07-28T04:51:02.203Z,19.6
2018-07-28T04:51:52.556Z,19.7
2018-07-28T04:52:42.629Z,19.8
2018-07-28T04:53:32.457Z,19.9
2018-07-28T04:54:22.485Z,20
2018-07-28T04:55:12.566Z,20.1
2018-07-28T04:56:02.919Z,20.3
2018-07-28T04:56:52.952Z,20.4
2018-07-28T04:57:43.016Z,20.6
2018-07-28T04:58:32.604Z,20.7
2018-07-28T04:59:22.853Z,20.8
2018-07-28T05:00:13.248Z,20.9
2018-07-28T05:01:53.058Z,21.3
2018-07-28T05:02:43.131Z,21.4
2018-07-28T05:03:33.565Z,21.5
2018-07-28T05:04:23.531Z,21.7
2018-07-28T05:05:13.330Z,21.9
2018-07-28T05:06:03.667Z,22
2018-07-28T05:06:53.436Z,22.2
2018-07-28T05:07:44.821Z,22.4
2018-07-28T05:08:33.649Z,22.6
2018-07-28T05:09:23.643Z,22.8
2018-07-28T05:10:13.998Z,22.9
2018-07-28T05:11:03.777Z,23.1
2018-07-28T05:11:53.823Z,23.3
2018-07-28T05:12:44.170Z,23.4
2018-07-28T05:13:34.219Z,23.6
2018-07-28T05:14:24.281Z,23.7
2018-07-28T05:15:14.084Z,23.8
2018-07-28T05:16:03.872Z,23.9
2018-07-28T05:16:54.469Z,24.1
2018-07-28T05:17:44.540Z,24.2
2018-07-28T05:18:34.338Z,24.4
2018-07-28T05:19:24.400Z,24.5
2018-07-28T05:20:14.471Z,24.6
2018-07-28T05:21:04.527Z,24.8
2018-07-28T05:21:54.890Z,24.9
2018-07-28T05:22:44.926Z,25
2018-07-28T05:23:35.028Z,25.1
2018-07-28T05:24:25.090Z,25.3
2018-07-28T05:25:15.116Z,25.4
2018-07-28T05:26:04.896Z,25.5
2018-07-28T05:26:55.251Z,25.7
2018-07-28T05:27:45.354Z,25.8
2018-07-28T05:28:35.144Z,25.9
2018-07-28T05:29:25.479Z,26
2018-07-28T05:30:15.551Z,26.2
2018-07-28T05:31:05.312Z,26.3
2018-07-28T05:31:55.082Z,26.4
2018-07-28T05:32:45.709Z,26.6
2018-07-28T05:33:35.505Z,26.9
2018-07-28T05:34:25.879Z,27.1
2018-07-28T05:35:15.660Z,27.4
2018-07-28T05:36:06.009Z,27.7
2018-07-28T05:36:55.768Z,28
2018-07-28T05:37:45.845Z,28.3
2018-07-28T05:38:36.167Z,28.6
2018-07-28T05:39:26.002Z,28.7
2018-07-28T05:40:16.288Z,28.9
2018-07-28T05:41:06.357Z,29
2018-07-28T05:41:56.438Z,29.1
2018-07-28T05:42:46.488Z,29.1
2018-07-28T05:43:36.553Z,29.2
2018-07-28T05:44:26.084Z,29.2
2018-07-28T05:45:16.681Z,29.3
2018-07-28T05:46:06.778Z,29.3
2018-07-28T05:46:56.531Z,29.3
2018-07-28T05:47:46.880Z,29.3
2018-07-28T05:48:36.639Z,29.3
2018-07-28T05:49:26.761Z,29.4
2018-07-28T05:50:17.474Z,29.5
2018-07-28T05:51:07.110Z,29.6
2018-07-28T05:51:57.193Z,29.7
2018-07-28T05:52:47.260Z,29.8
2018-07-28T05:53:37.044Z,30
2018-07-28T05:54:27.386Z,30.2
2018-07-28T05:55:17.457Z,30.4
2018-07-28T05:56:07.516Z,30.6
2018-07-28T05:56:57.300Z,30.8
2018-07-28T05:57:47.654Z,31
2018-07-28T05:58:37.216Z,31.3
2018-07-28T05:59:27.753Z,31.4
2018-07-28T06:00:17.539Z,31.6
2018-07-28T06:01:07.597Z,31.7
2018-07-28T06:01:57.980Z,31.8
2018-07-28T06:02:48.455Z,31.9
2018-07-28T06:03:38.074Z,31.9
2018-07-28T06:04:27.883Z,32
2018-07-28T06:05:17.974Z,32.1
2018-07-28T06:06:08.306Z,32.2
2018-07-28T06:06:57.791Z,32.3
2018-07-28T06:07:48.426Z,32.4
2018-07-28T06:08:38.486Z,32.5
2018-07-28T06:09:28.266Z,32.6
2018-07-28T06:10:18.350Z,32.8
2018-07-28T06:11:08.415Z,32.9
2018-07-28T06:11:58.754Z,33.1
2018-07-28T06:12:47.967Z,33.3
2018-07-28T06:13:38.873Z,33.4
2018-07-28T06:14:28.968Z,33.6
2018-07-28T06:15:19.008Z,33.8
2018-07-28T06:16:08.802Z,33.9
2018-07-28T06:16:59.120Z,34
2018-07-28T06:17:49.207Z,34.1
2018-07-28T06:18:39.259Z,34.2
2018-07-28T06:19:29.322Z,34.3
2018-07-28T06:20:19.805Z,34.3
2018-07-28T06:21:09.456Z,34.4
2018-07-28T06:21:59.922Z,34.4
2018-07-28T06:22:49.590Z,34.4
2018-07-28T06:23:39.644Z,34.4
2018-07-28T06:24:29.705Z,34.4
2018-07-28T06:25:19.761Z,34.6
2018-07-28T06:26:09.543Z,34.9
2018-07-28T06:26:59.933Z,35.3
2018-07-28T06:27:50.041Z,35.6
2018-07-28T06:28:39.773Z,35.9
2018-07-28T06:29:29.819Z,36.2
2018-07-28T06:30:19.883Z,36.3
2018-07-28T06:31:09.931Z,36.4
2018-07-28T06:32:00.557Z,36.6
2018-07-28T06:32:50.403Z,36.6
2018-07-28T06:33:40.381Z,36.6
2018-07-28T06:34:30.468Z,36.7
2018-07-28T06:35:20.528Z,36.7
2018-07-28T06:36:10.587Z,36.8
2018-07-28T06:37:00.660Z,36.8
2018-07-28T06:37:50.448Z,36.9
2018-07-28T06:38:40.536Z,37.1
2018-07-28T06:39:30.664Z,37.3
2018-07-28T06:40:20.910Z,37.5
2018-07-28T06:41:10.982Z,37.9
2018-07-28T06:42:01.073Z,38.4
2018-07-28T06:42:51.112Z,38.8
2018-07-28T06:43:41.209Z,39.3
2018-07-28T06:44:31.255Z,39.8
2018-07-28T06:45:20.777Z,40.4
2018-07-28T06:46:11.130Z,40.9
2018-07-28T06:47:01.160Z,41.3
2018-07-28T06:47:51.520Z,41.5
2018-07-28T06:48:41.582Z,41.6
2018-07-28T06:49:31.447Z,41.6
2018-07-28T06:50:21.730Z,41.6
2018-07-28T06:51:11.498Z,41.5
2018-07-28T06:52:01.637Z,41.4
2018-07-28T06:52:51.891Z,41.3
2018-07-28T06:53:41.832Z,41.1
2018-07-28T06:54:32.035Z,41
2018-07-28T06:55:21.820Z,40.9
2018-07-28T06:56:12.151Z,40.8
2018-07-28T06:57:01.953Z,40.7
2018-07-28T06:57:52.276Z,40.6
2018-07-28T06:58:42.531Z,40.6
2018-07-28T06:59:32.426Z,40.6
2018-07-28T07:00:22.213Z,40.6
2018-07-28T07:01:12.530Z,40.7
2018-07-28T07:02:02.618Z,40.8
2018-07-28T07:02:52.644Z,40.9
2018-07-28T07:03:42.448Z,40.9
2018-07-28T07:04:32.782Z,40.9
2018-07-28T07:05:22.284Z,40.9
2018-07-28T07:06:12.634Z,40.9
2018-07-28T07:07:03.007Z,40.9
2018-07-28T07:07:53.052Z,40.9
2018-07-28T07:08:43.142Z,40.9
2018-07-28T07:09:33.188Z,41.3
2018-07-28T07:10:22.950Z,41.9
2018-07-28T07:11:13.289Z,42.9
2018-07-28T07:12:03.366Z,44
2018-07-28T07:12:53.411Z,45.2
2018-07-28T07:13:43.497Z,46.4
2018-07-28T07:14:33.307Z,47.2
2018-07-28T07:15:23.346Z,47.8
2018-07-28T07:16:13.691Z,48
2018-07-28T07:17:03.534Z,48.1
2018-07-28T07:17:53.816Z,48.1
2018-07-28T07:18:43.919Z,48.2
2018-07-28T07:19:33.956Z,48.6
2018-07-28T07:20:24.024Z,49.2
2018-07-28T07:21:14.085Z,50.1
2018-07-28T07:22:03.863Z,51
2018-07-28T07:22:54.217Z,52.1
2018-07-28T07:23:43.740Z,53.1
2018-07-28T07:24:34.331Z,54.3
2018-07-28T07:25:24.125Z,55.4
2018-07-28T07:26:14.467Z,56.6
2018-07-28T07:27:04.525Z,58.5
2018-07-28T07:27:54.608Z,59.2
2018-07-28T07:28:44.380Z,57.3
2018-07-28T07:29:34.735Z,53.9
2018-07-28T07:30:24.436Z,49.4
2018-07-28T07:31:14.872Z,46.4
2018-07-28T07:32:04.932Z,44.6
2018-07-28T07:32:55.029Z,43.5
2018-07-28T07:33:44.475Z,42.8
2018-07-28T07:34:35.108Z,42.3
2018-07-28T07:35:25.169Z,42.2
2018-07-28T07:36:15.285Z,42.6
2018-07-28T07:37:05.281Z,43.1
2018-07-28T07:37:54.794Z,43.4
2018-07-28T07:38:45.429Z,43.7
2018-07-28T07:39:35.476Z,43.9
2018-07-28T07:40:25.561Z,44.1
2018-07-28T07:41:15.611Z,44.3
2018-07-28T07:42:05.679Z,44.6
2018-07-28T07:42:55.747Z,45.3
2018-07-28T07:43:45.840Z,46.2
2018-07-28T07:44:35.627Z,47.3
2018-07-28T07:45:25.828Z,48.4
2018-07-28T07:46:15.731Z,49.2
2018-07-28T07:47:05.850Z,49.6
2018-07-28T07:47:56.175Z,49.8
2018-07-28T07:48:45.932Z,49.8
2018-07-28T07:49:35.974Z,49.8
2018-07-28T07:50:26.057Z,49.8
2018-07-28T07:51:16.135Z,49.9
2018-07-28T07:52:05.911Z,50.5
2018-07-28T07:52:56.519Z,51.4
2018-07-28T07:53:46.075Z,52.4
2018-07-28T07:54:36.705Z,53.6
2018-07-28T07:55:26.436Z,54.8
2018-07-28T07:56:16.033Z,55.9
2018-07-28T07:57:06.872Z,57.6
2018-07-28T07:57:56.958Z,58.9
2018-07-28T07:58:47.000Z,58.1
2018-07-28T07:59:37.045Z,56.9
2018-07-28T08:00:26.857Z,55.3
2018-07-28T08:01:16.897Z,53.6
2018-07-28T08:02:06.982Z,52.4
2018-07-28T08:02:57.302Z,51.8
2018-07-28T08:03:46.809Z,51.4
2018-07-28T08:04:37.167Z,51.1
2018-07-28T08:05:27.519Z,50.9
2018-07-28T08:06:17.662Z,50.8
2018-07-28T08:07:07.632Z,50.7
2018-07-28T08:07:57.687Z,50.8
2018-07-28T08:08:47.756Z,51.3
2018-07-28T08:09:37.834Z,52.1
2018-07-28T08:10:27.900Z,53.3
2018-07-28T08:11:17.936Z,54.4
2018-07-28T08:12:07.437Z,55.9
2018-07-28T08:12:57.790Z,58.3
2018-07-28T08:13:47.599Z,59.1
2018-07-28T08:14:38.189Z,58.9
2018-07-28T08:15:27.706Z,57.7
2018-07-28T08:16:18.053Z,56.1
2018-07-28T08:17:07.825Z,54.8
2018-07-28T08:17:58.229Z,54.5
2018-07-28T08:18:48.256Z,55.4
2018-07-28T08:19:38.589Z,56.5
2018-07-28T08:20:28.703Z,57.4
2018-07-28T08:21:18.443Z,57.9
2018-07-28T08:22:08.507Z,57.9
2018-07-28T08:22:58.856Z,57.8
2018-07-28T08:24:38.412Z,57.9
2018-07-28T08:25:29.031Z,57.8
2018-07-28T08:26:19.119Z,57.5
2018-07-28T08:27:08.895Z,57.7
2018-07-28T08:27:58.687Z,57.6
2018-07-28T08:28:49.023Z,57.1
2018-07-28T08:29:39.390Z,56.3
2018-07-28T08:30:29.160Z,55.4
2018-07-28T08:31:19.510Z,55
2018-07-28T08:32:09.587Z,55.3
2018-07-28T08:32:59.644Z,55.9
2018-07-28T08:33:49.705Z,56.6
2018-07-28T08:34:39.192Z,57.1
2018-07-28T08:35:29.554Z,57.4
2018-07-28T08:36:19.609Z,57.6
2018-07-28T08:37:09.961Z,57.7
2018-07-28T08:37:59.867Z,57.8
2018-07-28T08:38:50.096Z,58.2
2018-07-28T08:40:30.204Z,58.9
2018-07-28T08:41:20.277Z,59.3
2018-07-28T08:42:10.067Z,59.5
2018-07-28T08:43:00.128Z,59.7
2018-07-28T08:43:50.521Z,59.9
2018-07-28T08:44:40.519Z,60.2
2018-07-28T08:45:30.309Z,60.5
2018-07-28T08:46:20.660Z,60.9
2018-07-28T08:47:10.268Z,61.2
2018-07-28T08:48:00.533Z,61.4
2018-07-28T08:48:51.158Z,61.6
2018-07-28T08:49:41.624Z,61.9
2018-07-28T08:50:31.017Z,62.1
2018-07-28T08:51:21.097Z,62.3
2018-07-28T08:52:11.135Z,62.4
2018-07-28T08:53:00.939Z,62.7
2018-07-28T08:53:50.699Z,63
2018-07-28T08:54:41.572Z,63.3
2018-07-28T08:55:31.778Z,63.6
2018-07-28T08:56:21.471Z,63.9
2018-07-28T08:57:10.982Z,64.1
2018-07-28T08:58:01.585Z,64.3
2018-07-28T08:58:51.664Z,64.1
2018-07-28T08:59:41.435Z,63.3
2018-07-28T09:00:31.783Z,62.3
2018-07-28T09:01:21.579Z,61.6
2018-07-28T09:02:11.908Z,61.7
2018-07-28T09:03:01.448Z,62.3
2018-07-28T09:03:52.052Z,62.8
2018-07-28T09:04:42.119Z,63.3
2018-07-28T09:05:31.889Z,63.6
2018-07-28T09:06:22.224Z,63.6
2018-07-28T09:07:12.291Z,63.6
2018-07-28T09:08:02.353Z,63.8
2018-07-28T09:08:52.428Z,64.1
2018-07-28T09:09:42.495Z,64.6
2018-07-28T09:10:32.481Z,64.9
2018-07-28T09:11:22.055Z,64.6
2018-07-28T09:12:12.394Z,64.2
2018-07-28T09:13:02.753Z,64.2
2018-07-28T09:13:52.551Z,64.4
2018-07-28T09:14:42.858Z,64.8
2018-07-28T09:15:32.368Z,64.8
2018-07-28T09:16:23.231Z,64.3
2018-07-28T09:17:12.820Z,64
2018-07-28T09:18:03.189Z,64
2018-07-28T09:18:52.644Z,63.5
2018-07-28T09:19:43.289Z,62.8
2018-07-28T09:20:33.337Z,62.6
2018-07-28T09:21:22.842Z,62.6
2018-07-28T09:22:13.184Z,62.9
2018-07-28T09:23:03.536Z,63.2
2018-07-28T09:23:53.333Z,63.6
2018-07-28T09:24:43.683Z,63.9
2018-07-28T09:25:33.762Z,64
2018-07-28T09:26:23.807Z,64.1
2018-07-28T09:27:13.857Z,64.3
2018-07-28T09:28:03.932Z,64.5
2018-07-28T09:28:53.515Z,64.8
2018-07-28T09:29:44.051Z,65.1
2018-07-28T09:30:34.421Z,65.3
2018-07-28T09:31:23.921Z,65.5
2018-07-28T09:32:14.249Z,65.6
2018-07-28T09:33:04.339Z,65.8
2018-07-28T09:33:54.373Z,65.9
2018-07-28T09:34:44.444Z,66.1
2018-07-28T09:35:34.531Z,66.2
2018-07-28T09:36:24.591Z,66.4
2018-07-28T09:37:14.654Z,66.6
2018-07-28T09:38:04.709Z,66.9
2018-07-28T09:38:54.808Z,67.1
2018-07-28T09:39:44.556Z,67.3
2018-07-28T09:40:34.901Z,67.4
2018-07-28T09:41:24.946Z,67.6
2018-07-28T09:42:14.752Z,67.7
2018-07-28T09:43:04.809Z,67.8
2018-07-28T09:43:55.141Z,67.9
2018-07-28T09:44:45.217Z,67.9
2018-07-28T09:45:35.288Z,68
2018-07-28T09:46:25.770Z,68.1
2018-07-28T09:47:15.439Z,68.1
2018-07-28T09:48:05.208Z,68.1
2018-07-28T09:48:55.533Z,68.2
2018-07-28T09:49:45.357Z,68.4
2018-07-28T09:50:35.378Z,68.5
2018-07-28T09:51:25.730Z,68.6
2018-07-28T09:52:15.227Z,68.6
2018-07-28T09:53:05.843Z,68.7
2018-07-28T09:53:55.937Z,68.7
2018-07-28T09:54:45.737Z,68.8
2018-07-28T09:55:36.059Z,68.8
2018-07-28T09:56:26.123Z,68.9
2018-07-28T09:57:16.214Z,69
2018-07-28T09:58:05.979Z,69.1
2018-07-28T09:58:56.343Z,69.2
2018-07-28T09:59:45.827Z,69.3
2018-07-28T10:00:36.486Z,69.3
2018-07-28T10:01:26.357Z,69.4
2018-07-28T10:02:16.606Z,69.4
2018-07-28T10:03:06.667Z,69.4
2018-07-28T10:03:56.454Z,69.5
2018-07-28T10:04:46.522Z,69.6
2018-07-28T10:05:37.294Z,69.7
2018-07-28T10:06:26.921Z,69.8
2018-07-28T10:07:16.987Z,69.9
2018-07-28T10:08:07.053Z,69.9
2018-07-28T10:08:56.840Z,70
2018-07-28T10:09:47.179Z,70.1
2018-07-28T10:10:36.962Z,70.1
2018-07-28T10:11:27.301Z,70.2
2018-07-28T10:12:17.375Z,70.3
2018-07-28T10:13:07.436Z,70.4
2018-07-28T10:13:57.497Z,70.5
2018-07-28T10:14:47.581Z,70.5
2018-07-28T10:15:37.641Z,70.6
2018-07-28T10:16:27.134Z,70.6
2018-07-28T10:17:17.762Z,70.6
2018-07-28T10:18:07.829Z,70.7
2018-07-28T10:18:57.768Z,70.8
2018-07-28T10:19:47.956Z,70.8
2018-07-28T10:20:38.018Z,70.8
2018-07-28T10:21:27.805Z,70.9
2018-07-28T10:22:18.145Z,70.9
2018-07-28T10:23:07.649Z,70.9
2018-07-28T10:23:58.301Z,71
2018-07-28T10:24:48.448Z,71
2018-07-28T10:25:38.410Z,71.1
2018-07-28T10:26:28.477Z,71.1
2018-07-28T10:27:18.567Z,71.1
2018-07-28T10:28:08.691Z,71.2
2018-07-28T10:28:58.674Z,70.6
2018-07-28T10:29:48.745Z,69.5
2018-07-28T10:30:38.798Z,68.3
2018-07-28T10:31:28.855Z,67.7
2018-07-28T10:32:18.913Z,67.8
2018-07-28T10:33:08.715Z,68.3
2018-07-28T10:33:58.774Z,68.8
2018-07-28T10:34:49.268Z,69.2
2018-07-28T10:35:38.948Z,69.3
2018-07-28T10:36:30.128Z,69.3
2018-07-28T10:37:19.047Z,69.3
2018-07-28T10:38:09.442Z,69.3
2018-07-28T10:38:59.198Z,69.5
2018-07-28T10:39:49.529Z,69.8
2018-07-28T10:40:39.591Z,70.1
2018-07-28T10:41:29.411Z,70.3
2018-07-28T10:42:19.190Z,70.4
2018-07-28T10:43:09.864Z,70.5
2018-07-28T10:43:59.846Z,70.6
2018-07-28T10:44:49.629Z,70.6
2018-07-28T10:45:40.488Z,70.7
2018-07-28T10:46:30.034Z,70.8
2018-07-28T10:47:20.131Z,70.8
2018-07-28T10:48:10.196Z,70.8
2018-07-28T10:49:00.238Z,70.8
2018-07-28T10:49:50.314Z,70.8
2018-07-28T10:50:40.106Z,70.7
2018-07-28T10:51:30.154Z,70.7
2018-07-28T10:52:20.476Z,70.7
2018-07-28T10:53:10.276Z,70.8
2018-07-28T10:54:00.606Z,70.8
2018-07-28T10:54:50.700Z,70.9
2018-07-28T10:55:40.506Z,71.1
2018-07-28T10:56:30.825Z,71.1
2018-07-28T10:57:20.896Z,71.2
2018-07-28T10:58:10.378Z,71.3
2018-07-28T10:59:01.033Z,71.3
2018-07-28T10:59:51.057Z,71.4
2018-07-28T11:00:41.132Z,71.4
2018-07-28T11:01:30.919Z,71.6
2018-07-28T11:02:21.266Z,71.6
2018-07-28T11:03:11.318Z,71.6
2018-07-28T11:04:01.168Z,71.6
2018-07-28T11:04:51.481Z,71.5
2018-07-28T11:05:41.535Z,71.5
2018-07-28T11:06:31.025Z,71.4
2018-07-28T11:07:21.648Z,71.4
2018-07-28T11:08:11.725Z,71.4
2018-07-28T11:09:01.678Z,71.3
2018-07-28T11:09:51.609Z,71.3
2018-07-28T11:10:41.932Z,71.2
2018-07-28T11:11:32.007Z,71.2
2018-07-28T11:12:21.789Z,71.1
2018-07-28T11:13:12.174Z,71.2